createdAt,value
2022-11-14T00:00:23.035Z,37.76
2022-11-14T00:02:49.544Z,37.94
2022-11-14T00:05:16.045Z,38.23
2022-11-14T00:07:42.503Z,37.94
2022-11-14T00:10:09.073Z,37.98
2022-11-14T00:12:35.544Z,37.90
2022-11-14T00:15:02.011Z,37.91
2022-11-14T00:17:28.487Z,38.18
2022-11-14T00:19:54.951Z,38.26
2022-11-14T00:22:21.449Z,38.15
2022-11-14T00:24:48.856Z,37.93
2022-11-14T00:27:15.410Z,38.21
2022-11-14T00:29:41.884Z,38.14
2022-11-14T00:32:08.359Z,38.27
2022-11-14T00:34:34.927Z,38.37
2022-11-14T00:37:01.474Z,38.09
2022-11-14T00:39:28.027Z,38.04
2022-11-14T00:41:54.521Z,38.14
2022-11-14T00:44:21.059Z,37.89
2022-11-14T00:46:47.505Z,38.09
2022-11-14T00:49:14.001Z,38.14
2022-11-14T00:51:40.470Z,37.84
2022-11-14T00:54:06.956Z,38.08
2022-11-14T00:56:33.414Z,38.03
2022-11-14T00:58:59.975Z,38.01
2022-11-14T01:01:26.457Z,38.01
2022-11-14T01:03:53.007Z,38.08
2022-11-14T01:06:19.541Z,38.11
2022-11-14T01:08:46.100Z,38.27
2022-11-14T01:11:15.882Z,38.21
2022-11-14T01:13:42.343Z,38.21
2022-11-14T01:16:09.092Z,38.30
2022-11-14T01:18:36.140Z,38.20
2022-11-14T01:21:08.201Z,38.34
2022-11-14T01:23:34.781Z,38.40
2022-11-14T01:26:02.839Z,38.02
2022-11-14T01:28:29.531Z,38.44
2022-11-14T01:30:56.167Z,38.43
2022-11-14T01:33:22.623Z,38.26
2022-11-14T01:35:50.111Z,38.30
2022-11-14T01:38:16.882Z,38.39
2022-11-14T01:40:44.878Z,38.46
2022-11-14T01:43:11.235Z,38.39
2022-11-14T01:45:57.256Z,38.41
2022-11-14T01:48:43.342Z,38.19
2022-11-14T01:51:30.080Z,38.29
2022-11-14T01:53:59.000Z,38.42
2022-11-14T01:56:29.702Z,38.18
2022-11-14T01:59:11.672Z,38.19
2022-11-14T02:01:49.033Z,38.58
2022-11-14T02:04:22.805Z,38.45
2022-11-14T02:06:49.354Z,38.35
2022-11-14T02:09:15.857Z,38.31
2022-11-14T02:11:43.689Z,38.15
2022-11-14T02:14:10.216Z,38.40
2022-11-14T02:16:37.942Z,38.37
2022-11-14T02:19:05.497Z,38.16
2022-11-14T02:21:31.966Z,38.19
2022-11-14T02:23:58.487Z,38.48
2022-11-14T02:26:24.964Z,38.41
2022-11-14T02:28:51.512Z,38.35
2022-11-14T02:31:17.986Z,38.60
2022-11-14T02:33:44.506Z,38.32
2022-11-14T02:36:11.040Z,38.60
2022-11-14T02:38:37.563Z,38.46
2022-11-14T02:41:04.077Z,38.43
2022-11-14T02:43:30.582Z,38.27
2022-11-14T02:46:00.304Z,38.49
2022-11-14T02:48:31.166Z,38.64
2022-11-14T02:50:57.837Z,38.55
2022-11-14T02:53:24.400Z,38.48
2022-11-14T02:55:50.868Z,38.62
2022-11-14T02:58:17.360Z,38.48
2022-11-14T03:01:05.971Z,38.69
2022-11-14T03:03:30.383Z,38.69
2022-11-14T03:06:00.861Z,38.46
2022-11-14T03:08:27.470Z,38.59
2022-11-14T03:10:54.389Z,38.49
2022-11-14T03:13:20.907Z,38.47
2022-11-14T03:15:47.398Z,38.23
2022-11-14T03:18:13.870Z,38.48
2022-11-14T03:20:40.846Z,38.63
2022-11-14T03:23:07.415Z,38.47
2022-11-14T03:25:33.856Z,38.53
2022-11-14T03:28:00.347Z,38.56
2022-11-14T03:30:26.802Z,38.68
2022-11-14T03:32:53.277Z,38.57
2022-11-14T03:35:19.738Z,38.66
2022-11-14T03:37:46.190Z,38.59
2022-11-14T03:40:12.837Z,38.56
2022-11-14T03:42:39.339Z,38.93
2022-11-14T03:45:06.208Z,38.48
2022-11-14T03:47:32.704Z,38.53
2022-11-14T03:50:01.366Z,38.60
2022-11-14T03:52:28.036Z,38.82
2022-11-14T03:54:54.681Z,38.82
2022-11-14T03:57:21.147Z,38.84
2022-11-14T03:59:47.691Z,38.98
2022-11-14T04:02:14.159Z,38.83
2022-11-14T04:04:40.695Z,38.71
2022-11-14T04:07:07.462Z,38.81
2022-11-14T04:09:34.286Z,38.74
2022-11-14T04:12:00.833Z,38.82
2022-11-14T04:14:27.314Z,38.61
2022-11-14T04:16:53.818Z,38.85
2022-11-14T04:19:20.302Z,39.02
2022-11-14T04:21:47.133Z,38.89
2022-11-14T04:24:13.623Z,38.88
2022-11-14T04:26:40.121Z,38.96
2022-11-14T04:29:06.594Z,39.09
2022-11-14T04:31:33.062Z,38.96
2022-11-14T04:33:59.573Z,39.07
2022-11-14T04:36:26.047Z,38.92
2022-11-14T04:38:53.919Z,39.00
2022-11-14T04:41:20.374Z,38.92
2022-11-14T04:43:50.658Z,38.76
2022-11-14T04:46:17.543Z,38.82
2022-11-14T04:48:44.049Z,38.90
2022-11-14T04:51:10.497Z,39.01
2022-11-14T04:53:37.008Z,39.00
2022-11-14T04:56:03.505Z,38.94
2022-11-14T04:58:30.346Z,38.93
2022-11-14T05:00:59.897Z,39.00
2022-11-14T05:03:26.448Z,38.82
2022-11-14T05:05:52.905Z,38.85
2022-11-14T05:08:19.365Z,38.86
2022-11-14T05:10:45.889Z,38.93
2022-11-14T05:13:12.705Z,38.95
2022-11-14T05:15:39.310Z,38.88
2022-11-14T05:18:05.817Z,39.13
2022-11-14T05:20:32.403Z,39.04
2022-11-14T05:22:58.921Z,39.10
2022-11-14T05:25:25.431Z,38.95
2022-11-14T05:27:51.922Z,38.97
2022-11-14T05:30:18.446Z,38.91
2022-11-14T05:32:44.970Z,38.95
2022-11-14T05:35:11.588Z,38.79
2022-11-14T05:37:38.239Z,38.94
2022-11-14T05:40:05.520Z,38.98
2022-11-14T05:42:32.094Z,38.98
2022-11-14T05:44:58.568Z,38.99
2022-11-14T05:47:25.370Z,39.12
2022-11-14T05:49:51.844Z,39.05
2022-11-14T05:52:18.305Z,39.10
2022-11-14T05:54:44.774Z,38.82
2022-11-14T05:57:11.252Z,38.92
2022-11-14T05:59:37.783Z,39.08
2022-11-14T06:02:04.294Z,38.77
2022-11-14T06:04:30.803Z,38.84
2022-11-14T06:06:57.356Z,38.88
2022-11-14T06:09:23.862Z,38.85
2022-11-14T06:11:50.329Z,38.91
2022-11-14T06:14:16.860Z,38.94
2022-11-14T06:16:43.314Z,38.71
2022-11-14T06:19:09.788Z,38.87
2022-11-14T06:21:36.321Z,38.89
2022-11-14T06:24:02.841Z,38.83
2022-11-14T06:26:30.325Z,38.85
2022-11-14T06:28:57.067Z,39.00
2022-11-14T06:31:23.571Z,38.82
2022-11-14T06:33:50.138Z,38.84
2022-11-14T06:36:16.816Z,38.89
2022-11-14T06:38:43.446Z,38.78
2022-11-14T06:41:20.242Z,38.92
2022-11-14T06:43:48.106Z,38.91
2022-11-14T06:46:19.021Z,38.81
2022-11-14T06:48:45.749Z,38.97
2022-11-14T06:51:12.734Z,38.91
2022-11-14T06:53:39.481Z,39.02
2022-11-14T06:56:10.533Z,38.99
2022-11-14T06:58:47.065Z,38.96
2022-11-14T07:01:15.733Z,38.98
2022-11-14T07:03:42.453Z,38.95
2022-11-14T07:06:10.294Z,39.08
2022-11-14T07:08:36.937Z,38.92
2022-11-14T07:11:10.831Z,39.14
2022-11-14T07:13:37.449Z,39.05
2022-11-14T07:16:04.179Z,38.94
2022-11-14T07:18:31.654Z,39.03
2022-11-14T07:21:03.028Z,39.09
2022-11-14T07:23:30.010Z,38.79
2022-11-14T07:25:58.433Z,38.70
2022-11-14T07:28:24.941Z,38.63
2022-11-14T07:30:51.394Z,38.85
2022-11-14T07:33:17.929Z,38.72
2022-11-14T07:35:44.427Z,38.71
2022-11-14T07:38:10.898Z,38.51
2022-11-14T07:40:37.357Z,38.34
2022-11-14T07:43:03.873Z,38.28
2022-11-14T07:45:30.896Z,38.56
2022-11-14T07:47:58.587Z,38.45
2022-11-14T07:50:25.798Z,38.45
2022-11-14T07:52:55.387Z,38.64
2022-11-14T07:55:22.060Z,38.52
2022-11-14T07:57:49.587Z,38.62
2022-11-14T08:00:16.989Z,38.51
2022-11-14T08:02:43.517Z,39.05
2022-11-14T08:05:09.986Z,39.32
2022-11-14T08:07:36.503Z,39.00
2022-11-14T08:10:03.266Z,39.24
2022-11-14T08:12:29.749Z,38.90
2022-11-14T08:14:56.202Z,39.45
2022-11-14T08:17:22.976Z,39.26
2022-11-14T08:19:49.451Z,38.60
2022-11-14T08:22:16.990Z,38.79
2022-11-14T08:24:43.765Z,38.79
2022-11-14T08:27:10.234Z,38.30
2022-11-14T08:29:37.045Z,38.91
2022-11-14T08:32:03.542Z,38.40
2022-11-14T08:34:30.357Z,38.12
2022-11-14T08:36:57.809Z,38.12
2022-11-14T08:39:24.286Z,37.82
2022-11-14T08:41:50.745Z,37.62
2022-11-14T08:44:17.205Z,37.37
2022-11-14T08:46:43.751Z,36.81
2022-11-14T08:49:10.221Z,37.11
2022-11-14T08:51:37.004Z,37.02
2022-11-14T08:54:03.590Z,36.91
2022-11-14T08:56:30.059Z,37.00
2022-11-14T08:58:56.527Z,36.58
2022-11-14T09:01:23.044Z,36.90
2022-11-14T09:03:50.263Z,36.66
2022-11-14T09:06:17.897Z,36.23
2022-11-14T09:08:44.367Z,36.39
2022-11-14T09:11:12.408Z,36.45
2022-11-14T09:13:41.122Z,36.32
2022-11-14T09:16:07.906Z,36.39
2022-11-14T09:18:34.365Z,36.41
2022-11-14T09:21:05.206Z,36.47
2022-11-14T09:23:32.443Z,36.42
2022-11-14T09:25:59.160Z,36.28
2022-11-14T09:28:25.623Z,36.14
2022-11-14T09:30:52.165Z,35.89
2022-11-14T09:33:18.656Z,35.77
2022-11-14T09:35:45.116Z,35.86
2022-11-14T09:38:11.631Z,36.06
2022-11-14T09:41:02.793Z,35.88
2022-11-14T09:43:54.039Z,35.75
2022-11-14T09:46:25.892Z,35.63
2022-11-14T09:48:52.925Z,35.51
2022-11-14T09:51:24.268Z,35.48
2022-11-14T09:53:59.237Z,35.46
2022-11-14T09:56:26.306Z,35.45
2022-11-14T09:58:53.503Z,35.44
2022-11-14T10:01:38.851Z,35.52
2022-11-14T10:04:18.566Z,35.52
2022-11-14T10:06:51.149Z,35.66
2022-11-14T10:09:30.427Z,35.75
2022-11-14T10:12:15.943Z,35.60
2022-11-14T10:15:11.634Z,35.94
2022-11-14T10:17:56.521Z,35.84
2022-11-14T10:20:38.048Z,35.71
2022-11-14T10:23:17.878Z,35.70
2022-11-14T10:25:49.208Z,35.38
2022-11-14T10:28:46.711Z,35.61
2022-11-14T10:31:40.558Z,35.55
2022-11-14T10:34:42.672Z,35.80
2022-11-14T10:37:20.366Z,35.72
2022-11-14T10:40:26.401Z,35.63
2022-11-14T10:42:58.106Z,35.53
2022-11-14T10:45:30.446Z,35.54
2022-11-14T10:48:33.709Z,35.63
2022-11-14T10:51:08.640Z,35.60
2022-11-14T10:53:47.477Z,35.33
2022-11-14T10:56:14.743Z,35.45
2022-11-14T10:58:48.577Z,35.29
2022-11-14T11:01:51.035Z,35.25
2022-11-14T11:04:21.656Z,35.27
2022-11-14T11:06:49.519Z,35.19
2022-11-14T11:09:44.843Z,34.98
2022-11-14T11:12:17.176Z,35.45
2022-11-14T11:14:48.654Z,35.19
2022-11-14T11:17:16.694Z,35.25
2022-11-14T11:19:43.204Z,35.12
2022-11-14T11:22:26.287Z,34.82
2022-11-14T11:24:52.765Z,34.91
2022-11-14T11:27:20.271Z,34.76
2022-11-14T11:29:46.832Z,34.92
2022-11-14T11:32:24.034Z,35.01
2022-11-14T11:34:51.205Z,34.84
2022-11-14T11:37:23.541Z,35.02
2022-11-14T11:39:52.682Z,35.19
2022-11-14T11:42:23.376Z,34.99
2022-11-14T11:44:50.891Z,34.83
2022-11-14T11:47:17.544Z,34.35
2022-11-14T11:49:53.269Z,34.32
2022-11-14T11:52:29.984Z,34.35
2022-11-14T11:55:17.350Z,34.49
2022-11-14T11:57:45.688Z,34.42
2022-11-14T12:00:16.459Z,34.73
2022-11-14T12:02:49.748Z,34.66
2022-11-14T12:05:41.160Z,34.74
2022-11-14T12:08:21.479Z,34.84
2022-11-14T12:10:48.252Z,35.00
2022-11-14T12:13:30.120Z,34.88
2022-11-14T12:16:18.728Z,35.00
2022-11-14T12:19:05.331Z,34.98
2022-11-14T12:21:34.734Z,34.98
2022-11-14T12:24:08.108Z,34.93
2022-11-14T12:26:52.770Z,35.31
2022-11-14T12:29:35.841Z,35.33
2022-11-14T12:32:06.918Z,35.36
2022-11-14T12:34:34.291Z,35.30
2022-11-14T12:37:00.798Z,35.62
2022-11-14T12:39:28.665Z,35.75
2022-11-14T12:42:05.475Z,35.66
2022-11-14T12:44:34.317Z,35.72
2022-11-14T12:47:06.804Z,36.02
2022-11-14T12:49:48.874Z,36.14
2022-11-14T12:52:49.233Z,35.96
2022-11-14T12:55:18.642Z,35.97
2022-11-14T12:58:05.854Z,36.06
2022-11-14T13:00:33.690Z,36.11
2022-11-14T13:03:00.006Z,36.17
2022-11-14T13:05:51.367Z,36.11
2022-11-14T13:08:32.866Z,36.33
2022-11-14T13:10:59.429Z,36.58
2022-11-14T13:13:44.564Z,36.69
2022-11-14T13:16:23.535Z,36.83
2022-11-14T13:19:30.496Z,36.91
2022-11-14T13:22:12.013Z,37.19
2022-11-14T13:25:03.422Z,37.14
2022-11-14T13:28:05.223Z,37.24
2022-11-14T13:30:20.262Z,37.32
2022-11-14T13:32:46.597Z,37.36
2022-11-14T13:35:17.347Z,37.40
2022-11-14T13:38:02.681Z,37.48
2022-11-14T13:40:47.017Z,37.64
2022-11-14T13:43:16.726Z,37.62
2022-11-14T13:45:59.412Z,37.63
2022-11-14T13:48:31.750Z,37.57
2022-11-14T13:51:21.437Z,37.74
2022-11-14T13:53:47.237Z,37.28
2022-11-14T13:56:35.817Z,37.67
2022-11-14T13:59:39.073Z,37.73
2022-11-14T14:02:21.872Z,37.30
2022-11-14T14:05:07.154Z,37.51
2022-11-14T14:07:54.847Z,37.60
2022-11-14T14:10:31.651Z,37.42
2022-11-14T14:13:18.790Z,37.44
2022-11-14T14:16:05.777Z,37.66
2022-11-14T14:19:05.870Z,37.49
2022-11-14T14:21:34.518Z,37.74
2022-11-14T14:24:09.864Z,37.79
2022-11-14T14:26:43.396Z,37.70
2022-11-14T14:29:22.581Z,37.73
2022-11-14T14:31:49.046Z,37.84
2022-11-14T14:34:28.236Z,37.73
2022-11-14T14:36:55.867Z,37.68
2022-11-14T14:39:26.942Z,37.78
2022-11-14T14:41:57.865Z,37.57
2022-11-14T14:44:29.821Z,37.77
2022-11-14T14:46:56.432Z,37.75
2022-11-14T14:49:36.548Z,38.02
2022-11-14T14:52:26.721Z,38.11
2022-11-14T14:54:56.609Z,37.93
2022-11-14T14:57:23.603Z,38.09
2022-11-14T15:00:04.662Z,37.87
2022-11-14T15:02:31.117Z,38.16
2022-11-14T15:04:57.656Z,38.26
2022-11-14T15:07:25.165Z,38.15
2022-11-14T15:09:55.914Z,38.26
2022-11-14T15:12:26.802Z,38.29
2022-11-14T15:14:53.516Z,38.29
2022-11-14T15:17:20.534Z,38.37
2022-11-14T15:19:47.155Z,38.07
2022-11-14T15:22:17.708Z,38.28
2022-11-14T15:24:44.259Z,38.14
2022-11-14T15:27:17.876Z,38.54
2022-11-14T15:29:47.839Z,38.38
2022-11-14T15:32:47.343Z,38.44
2022-11-14T15:35:24.936Z,38.30
2022-11-14T15:38:42.175Z,38.15
2022-11-14T15:41:23.094Z,38.07
2022-11-14T15:43:53.277Z,38.02
2022-11-14T15:46:35.589Z,37.81
2022-11-14T15:49:07.701Z,37.88
2022-11-14T15:51:53.210Z,37.76
2022-11-14T15:54:30.640Z,38.06
2022-11-14T15:56:58.676Z,37.85
2022-11-14T15:59:25.857Z,37.82
2022-11-14T16:02:04.302Z,37.80
2022-11-14T16:04:32.874Z,37.57
2022-11-14T16:06:59.466Z,37.35
2022-11-14T16:09:25.978Z,37.51
2022-11-14T16:11:52.471Z,37.52
2022-11-14T16:14:19.013Z,37.58
2022-11-14T16:16:45.503Z,37.57
2022-11-14T16:19:15.446Z,37.59
2022-11-14T16:21:42.123Z,37.52
2022-11-14T16:24:19.608Z,37.76
2022-11-14T16:26:46.124Z,37.38
2022-11-14T16:29:12.756Z,37.62
2022-11-14T16:31:39.259Z,37.73
2022-11-14T16:34:06.033Z,37.70
2022-11-14T16:36:32.614Z,37.79
2022-11-14T16:39:01.027Z,37.69
2022-11-14T16:41:27.615Z,37.76
2022-11-14T16:43:54.973Z,37.73
2022-11-14T16:46:21.608Z,37.85
2022-11-14T16:48:48.085Z,37.71
2022-11-14T16:51:40.919Z,37.82
2022-11-14T16:54:01.063Z,37.94
2022-11-14T16:56:27.606Z,37.75
2022-11-14T16:58:55.346Z,37.84
2022-11-14T17:01:21.893Z,37.78
2022-11-14T17:03:48.399Z,38.16
2022-11-14T17:06:14.888Z,38.07
2022-11-14T17:08:41.348Z,38.10
2022-11-14T17:11:09.639Z,37.90
2022-11-14T17:13:36.941Z,37.73
2022-11-14T17:16:04.121Z,37.83
2022-11-14T17:18:35.494Z,37.71
2022-11-14T17:21:07.795Z,37.56
2022-11-14T17:23:34.391Z,37.34
2022-11-14T17:26:04.812Z,37.48
2022-11-14T17:28:31.513Z,37.24
2022-11-14T17:30:58.137Z,37.24
2022-11-14T17:33:24.669Z,37.36
2022-11-14T17:35:51.145Z,37.23
2022-11-14T17:38:17.669Z,37.22
2022-11-14T17:40:44.188Z,37.36
2022-11-14T17:43:10.711Z,37.25
2022-11-14T17:45:41.062Z,37.53
2022-11-14T17:48:07.839Z,37.33
2022-11-14T17:50:37.570Z,37.40
2022-11-14T17:53:04.386Z,37.40
2022-11-14T17:55:30.860Z,37.44
2022-11-14T17:57:57.323Z,37.54
2022-11-14T18:00:23.823Z,37.70
2022-11-14T18:02:50.426Z,37.67
2022-11-14T18:05:16.975Z,37.66
2022-11-14T18:07:43.430Z,37.72
2022-11-14T18:10:10.334Z,37.66
2022-11-14T18:12:36.799Z,37.72
2022-11-14T18:15:03.468Z,37.58
2022-11-14T18:17:31.566Z,37.99
2022-11-14T18:20:00.628Z,37.81
2022-11-14T18:22:27.982Z,37.46
2022-11-14T18:24:54.578Z,37.54
2022-11-14T18:27:21.431Z,37.05
2022-11-14T18:29:48.508Z,36.89
2022-11-14T18:32:15.890Z,36.84
2022-11-14T18:34:42.342Z,36.56
2022-11-14T18:37:08.795Z,36.53
2022-11-14T18:39:35.294Z,36.55
2022-11-14T18:42:01.786Z,36.47
2022-11-14T18:44:28.418Z,36.04
2022-11-14T18:46:54.906Z,36.56
2022-11-14T18:49:21.611Z,36.91
2022-11-14T18:51:48.062Z,37.04
2022-11-14T18:54:16.183Z,37.48
2022-11-14T18:56:42.659Z,37.26
2022-11-14T18:59:09.119Z,37.49
2022-11-14T19:01:35.797Z,37.62
2022-11-14T19:04:03.517Z,37.71
2022-11-14T19:06:31.025Z,37.64
2022-11-14T19:08:58.336Z,37.34
2022-11-14T19:11:43.414Z,37.62
2022-11-14T19:14:10.017Z,37.49
2022-11-14T19:16:36.855Z,37.41
2022-11-14T19:19:05.240Z,37.46
2022-11-14T19:21:31.765Z,37.51
2022-11-14T19:23:59.561Z,37.65
2022-11-14T19:26:26.217Z,37.70
2022-11-14T19:28:52.741Z,37.76
2022-11-14T19:31:19.500Z,37.75
2022-11-14T19:33:46.044Z,37.57
2022-11-14T19:36:27.745Z,37.51
2022-11-14T19:39:03.493Z,37.64
2022-11-14T19:41:30.273Z,37.86
2022-11-14T19:43:57.991Z,37.84
2022-11-14T19:46:29.106Z,37.52
2022-11-14T19:48:59.365Z,37.58
2022-11-14T19:51:26.024Z,37.37
2022-11-14T19:53:53.214Z,37.57
2022-11-14T19:56:20.055Z,37.70
2022-11-14T19:58:47.190Z,37.64
2022-11-14T20:01:18.579Z,37.30
2022-11-14T20:03:45.110Z,37.36
2022-11-14T20:06:16.441Z,37.27
2022-11-14T20:08:42.897Z,37.38
2022-11-14T20:11:09.532Z,37.26
2022-11-14T20:13:37.604Z,37.33
2022-11-14T20:16:14.831Z,37.69
2022-11-14T20:18:41.787Z,37.61
2022-11-14T20:21:10.681Z,37.44
2022-11-14T20:23:37.491Z,37.69
2022-11-14T20:26:10.031Z,37.65
2022-11-14T20:28:38.733Z,37.40
2022-11-14T20:31:06.790Z,37.76
2022-11-14T20:33:36.391Z,37.56
2022-11-14T20:36:07.229Z,37.76
2022-11-14T20:38:33.896Z,37.50
2022-11-14T20:41:00.894Z,37.91
2022-11-14T20:43:28.605Z,37.89
2022-11-14T20:45:59.315Z,37.81
2022-11-14T20:48:25.968Z,38.04
2022-11-14T20:50:52.525Z,37.65
2022-11-14T20:53:19.225Z,38.03
2022-11-14T20:55:52.559Z,37.74
2022-11-14T20:58:19.658Z,37.89
2022-11-14T21:00:46.117Z,37.91
2022-11-14T21:03:12.630Z,38.03
2022-11-14T21:05:39.844Z,37.82
2022-11-14T21:08:06.407Z,38.06
2022-11-14T21:10:46.095Z,37.73
2022-11-14T21:13:38.855Z,37.93
2022-11-14T21:16:10.183Z,37.98
2022-11-14T21:18:38.393Z,37.92
2022-11-14T21:21:09.776Z,38.16
2022-11-14T21:23:36.285Z,37.89
2022-11-14T21:26:09.541Z,37.95
2022-11-14T21:28:37.641Z,38.01
2022-11-14T21:31:23.504Z,38.19
2022-11-14T21:33:51.324Z,38.00
2022-11-14T21:39:04.760Z,37.92
2022-11-14T21:41:31.476Z,38.33
2022-11-14T21:43:59.408Z,38.46
2022-11-14T21:46:26.007Z,38.04
2022-11-14T21:48:52.733Z,38.44
2022-11-14T21:51:20.694Z,38.27
2022-11-14T21:53:47.954Z,38.54
2022-11-14T21:56:24.730Z,38.61
2022-11-14T21:58:51.562Z,38.60
2022-11-14T22:01:38.550Z,38.56
2022-11-14T22:04:14.335Z,38.69
2022-11-14T22:06:41.391Z,38.81
2022-11-14T22:09:08.061Z,38.71
2022-11-14T22:11:35.678Z,38.53
2022-11-14T22:14:02.134Z,38.58
2022-11-14T22:16:28.597Z,38.75
2022-11-14T22:18:57.169Z,38.67
2022-11-14T22:21:27.105Z,38.74
2022-11-14T22:23:54.101Z,38.83
2022-11-14T22:26:20.595Z,38.72
2022-11-14T22:28:47.166Z,38.99
2022-11-14T22:31:20.936Z,38.95
2022-11-14T22:33:48.929Z,38.99
2022-11-14T22:36:22.831Z,39.10
2022-11-14T22:38:49.625Z,38.93
2022-11-14T22:41:17.871Z,38.79
2022-11-14T22:43:44.391Z,39.17
2022-11-14T22:46:15.102Z,39.08
2022-11-14T22:48:42.447Z,39.10
2022-11-14T22:51:11.770Z,39.29
2022-11-14T22:53:38.816Z,39.00
2022-11-14T22:56:06.365Z,39.01
2022-11-14T22:58:34.190Z,39.12
2022-11-14T23:01:01.002Z,39.36
2022-11-14T23:03:27.710Z,39.23
2022-11-14T23:05:54.219Z,39.29
2022-11-14T23:08:20.810Z,39.18
2022-11-14T23:10:47.704Z,39.46
2022-11-14T23:13:14.535Z,39.45
2022-11-14T23:15:46.212Z,39.25
2022-11-14T23:18:13.063Z,39.47
2022-11-14T23:20:39.526Z,39.63
2022-11-14T23:23:06.032Z,39.48
2022-11-14T23:25:32.519Z,39.36
2022-11-14T23:27:59.045Z,39.50
2022-11-14T23:30:25.518Z,39.45
2022-11-14T23:32:51.996Z,39.32
2022-11-14T23:35:18.468Z,39.50
2022-11-14T23:37:44.947Z,39.50
2022-11-14T23:40:11.610Z,39.54
2022-11-14T23:42:38.104Z,39.41
2022-11-14T23:45:04.758Z,39.43
2022-11-14T23:47:31.265Z,39.52
2022-11-14T23:49:57.755Z,39.50
2022-11-14T23:52:24.251Z,39.70
2022-11-14T23:54:50.727Z,39.64
2022-11-14T23:57:17.518Z,39.71
2022-11-14T23:59:43.999Z,39.56
